createdAt,value
2022-08-11T00:01:25.296Z,24.96
2022-08-11T00:04:06.350Z,24.81
2022-08-11T00:06:36.030Z,24.95
2022-08-11T00:09:05.273Z,24.85
2022-08-11T00:11:35.383Z,24.71
2022-08-11T00:14:03.850Z,24.63
2022-08-11T00:16:30.597Z,24.59
2022-08-11T00:18:58.135Z,24.57
2022-08-11T00:21:35.530Z,24.29
2022-08-11T00:24:12.822Z,24.27
2022-08-11T00:26:39.407Z,23.89
2022-08-11T00:29:12.310Z,23.97
2022-08-11T00:31:44.568Z,24.14
2022-08-11T00:34:12.490Z,24.28
2022-08-11T00:36:46.323Z,24.13
2022-08-11T00:39:14.205Z,23.86
2022-08-11T00:41:47.522Z,24.09
2022-08-11T00:44:28.865Z,24.02
2022-08-11T00:47:07.696Z,24.23
2022-08-11T00:49:55.629Z,24.22
2022-08-11T00:52:40.913Z,24.28
2022-08-11T00:55:33.978Z,24.25
2022-08-11T00:58:39.927Z,23.84
2022-08-11T01:01:15.996Z,24.24
2022-08-11T01:04:17.387Z,24.08
2022-08-11T01:06:50.011Z,24.01
2022-08-11T01:09:32.176Z,24.09
2022-08-11T01:12:20.715Z,24.40
2022-08-11T01:15:15.382Z,24.43
2022-08-11T01:18:17.016Z,24.43
2022-08-11T01:20:49.395Z,24.36
2022-08-11T01:23:45.545Z,24.44
2022-08-11T01:26:46.212Z,24.36
2022-08-11T01:29:52.457Z,24.52
2022-08-11T01:32:43.856Z,24.44
2022-08-11T01:35:34.962Z,24.45
2022-08-11T01:38:27.651Z,24.42
2022-08-11T01:41:15.342Z,24.40
2022-08-11T01:44:12.561Z,24.34
2022-08-11T01:46:46.807Z,24.30
2022-08-11T01:50:07.557Z,24.27
2022-08-11T01:52:41.271Z,24.01
2022-08-11T01:56:05.224Z,24.05
2022-08-11T01:58:53.792Z,24.18
2022-08-11T02:01:20.373Z,23.75
2022-08-11T02:04:08.797Z,23.89
2022-08-11T02:06:55.804Z,24.00
2022-08-11T02:09:49.270Z,23.88
2022-08-11T02:12:29.015Z,24.03
2022-08-11T02:15:30.021Z,23.91
2022-08-11T02:18:06.748Z,23.90
2022-08-11T02:21:03.353Z,23.73
2022-08-11T02:24:05.744Z,23.79
2022-08-11T02:27:00.395Z,23.37
2022-08-11T02:29:32.417Z,23.54
2022-08-11T02:33:06.230Z,23.64
2022-08-11T02:36:00.810Z,23.34
2022-08-11T02:38:43.251Z,23.31
2022-08-11T02:41:42.557Z,23.49
2022-08-11T02:44:30.134Z,23.25
2022-08-11T02:47:08.903Z,23.07
2022-08-11T02:49:59.741Z,23.04
2022-08-11T02:52:48.721Z,23.08
2022-08-11T02:55:48.859Z,22.93
2022-08-11T02:58:09.646Z,22.84
2022-08-11T03:00:46.647Z,22.75
2022-08-11T03:03:21.452Z,22.97
2022-08-11T03:05:56.182Z,23.01
2022-08-11T03:08:51.218Z,23.14
2022-08-11T03:11:44.770Z,23.09
2022-08-11T03:14:56.525Z,22.84
2022-08-11T03:17:34.319Z,22.93
2022-08-11T03:20:24.567Z,23.08
2022-08-11T03:23:19.363Z,23.01
2022-08-11T03:25:59.420Z,22.84
2022-08-11T03:29:11.271Z,22.89
2022-08-11T03:31:50.693Z,22.94
2022-08-11T03:34:23.419Z,22.87
2022-08-11T03:37:15.433Z,22.85
2022-08-11T03:40:00.698Z,22.60
2022-08-11T03:42:27.354Z,22.60
2022-08-11T03:45:00.580Z,22.37
2022-08-11T03:47:32.027Z,22.53
2022-08-11T03:50:26.622Z,22.38
2022-08-11T03:53:12.346Z,22.26
2022-08-11T03:55:45.051Z,22.42
2022-08-11T03:58:29.667Z,22.37
2022-08-11T04:01:23.877Z,22.59
2022-08-11T04:04:09.318Z,22.48
2022-08-11T04:06:50.918Z,22.71
2022-08-11T04:09:38.928Z,22.19
2022-08-11T04:12:35.506Z,22.37
2022-08-11T04:15:22.154Z,22.49
2022-08-11T04:17:54.041Z,22.31
2022-08-11T04:20:52.153Z,22.12
2022-08-11T04:24:37.229Z,22.44
2022-08-11T04:26:47.035Z,22.13
2022-08-11T04:29:36.207Z,22.04
2022-08-11T04:32:32.186Z,22.20
2022-08-11T04:35:26.236Z,22.06
2022-08-11T04:38:30.808Z,22.50
2022-08-11T04:41:34.912Z,22.36
2022-08-11T04:44:26.432Z,22.39
2022-08-11T04:48:03.679Z,22.40
2022-08-11T04:51:30.939Z,22.47
2022-08-11T04:54:43.770Z,22.55
2022-08-11T04:57:38.942Z,22.56
2022-08-11T05:00:27.181Z,22.41
2022-08-11T05:03:15.266Z,22.65
2022-08-11T05:06:17.876Z,22.60
2022-08-11T05:09:03.191Z,22.70
2022-08-11T05:12:02.284Z,22.99
2022-08-11T05:14:58.220Z,22.68
2022-08-11T05:17:53.595Z,22.70
2022-08-11T05:20:40.427Z,22.88
2022-08-11T05:23:27.723Z,22.38
2022-08-11T05:26:46.382Z,22.21
2022-08-11T05:29:24.573Z,22.32
2022-08-11T05:32:19.981Z,22.31
2022-08-11T05:34:54.757Z,22.51
2022-08-11T05:37:27.097Z,22.37
2022-08-11T05:40:18.080Z,22.42
2022-08-11T05:43:08.498Z,22.46
2022-08-11T05:46:02.862Z,22.30
2022-08-11T05:48:52.366Z,22.55
2022-08-11T05:51:37.986Z,22.48
2022-08-11T05:54:28.451Z,22.60
2022-08-11T05:57:00.221Z,22.43
2022-08-11T05:59:28.369Z,22.93
2022-08-11T06:02:01.064Z,22.52
2022-08-11T06:04:28.348Z,22.68
2022-08-11T06:07:00.641Z,22.79
2022-08-11T06:09:37.228Z,22.39
2022-08-11T06:12:03.903Z,22.71
2022-08-11T06:14:30.842Z,22.87
2022-08-11T06:16:59.597Z,22.60
2022-08-11T06:19:38.361Z,22.98
2022-08-11T06:22:06.851Z,23.10
2022-08-11T06:24:35.239Z,23.46
2022-08-11T06:27:18.658Z,23.44
2022-08-11T06:29:55.235Z,23.32
2022-08-11T06:32:28.128Z,23.34
2022-08-11T06:35:11.878Z,23.54
2022-08-11T06:37:59.022Z,23.45
2022-08-11T06:40:42.521Z,23.55
2022-08-11T06:43:20.092Z,23.74
2022-08-11T06:46:03.279Z,23.95
2022-08-11T06:48:32.514Z,24.37
2022-08-11T06:51:14.632Z,24.23
2022-08-11T06:54:03.872Z,24.39
2022-08-11T06:57:06.621Z,24.93
2022-08-11T06:59:57.585Z,24.86
2022-08-11T07:02:39.157Z,24.98
2022-08-11T07:05:11.767Z,25.03
2022-08-11T07:08:34.445Z,25.08
2022-08-11T07:11:45.325Z,25.10
2022-08-11T07:14:38.599Z,25.22
2022-08-11T07:17:07.735Z,24.96
2022-08-11T07:19:52.802Z,25.24
2022-08-11T07:22:42.990Z,25.44
2022-08-11T07:25:32.156Z,25.54
2022-08-11T07:28:23.309Z,26.04
2022-08-11T07:30:58.454Z,26.18
2022-08-11T07:34:07.888Z,26.42
2022-08-11T07:36:16.930Z,26.46
2022-08-11T07:38:50.779Z,26.60
2022-08-11T07:41:20.454Z,26.71
2022-08-11T07:43:49.622Z,27.07
2022-08-11T07:46:35.852Z,27.37
2022-08-11T07:49:22.558Z,27.29
2022-08-11T07:52:08.005Z,27.48
2022-08-11T07:54:35.720Z,27.86
2022-08-11T07:58:14.288Z,27.89
2022-08-11T08:00:29.850Z,27.97
2022-08-11T08:03:17.763Z,28.17
2022-08-11T08:06:04.518Z,28.08
2022-08-11T08:09:01.060Z,27.92
2022-08-11T08:11:46.350Z,28.72
2022-08-11T08:14:31.480Z,28.81
2022-08-11T08:17:17.180Z,28.51
2022-08-11T08:19:48.044Z,28.48
2022-08-11T08:22:39.073Z,29.08
2022-08-11T08:25:07.420Z,29.43
2022-08-11T08:27:35.498Z,29.05
2022-08-11T08:30:22.648Z,29.74
2022-08-11T08:32:50.138Z,30.14
2022-08-11T08:35:16.785Z,30.28
2022-08-11T08:37:45.301Z,30.38
2022-08-11T08:40:14.882Z,30.78
2022-08-11T08:42:55.019Z,30.17
2022-08-11T08:45:22.319Z,31.26
2022-08-11T08:47:57.036Z,31.85
2022-08-11T08:50:27.527Z,31.13
2022-08-11T08:53:01.968Z,31.46
2022-08-11T08:55:30.992Z,31.35
2022-08-11T08:58:00.737Z,32.16
2022-08-11T09:00:45.262Z,33.74
2022-08-11T09:03:38.579Z,34.63
2022-08-11T09:06:00.811Z,35.24
2022-08-11T09:08:28.501Z,35.69
2022-08-11T09:11:14.605Z,36.03
2022-08-11T09:13:44.421Z,35.30
2022-08-11T09:16:12.001Z,36.46
2022-08-11T09:18:40.197Z,35.71
2022-08-11T09:21:07.298Z,35.95
2022-08-11T09:24:13.064Z,36.45
2022-08-11T09:26:58.660Z,37.61
2022-08-11T09:29:27.712Z,38.06
2022-08-11T09:31:54.666Z,42.17
2022-08-11T09:34:21.560Z,46.99
2022-08-11T09:37:07.149Z,51.61
2022-08-11T09:39:55.342Z,54.85
2022-08-11T09:42:44.204Z,56.01
2022-08-11T09:45:12.541Z,58.96
2022-08-11T09:47:41.047Z,58.65
2022-08-11T09:50:09.308Z,60.87
2022-08-11T09:52:52.141Z,52.69
2022-08-11T09:55:19.183Z,52.92
2022-08-11T09:58:05.339Z,56.74
2022-08-11T10:00:38.016Z,54.66
2022-08-11T10:03:10.113Z,53.95
2022-08-11T10:05:56.726Z,55.05
2022-08-11T10:08:28.418Z,54.54
2022-08-11T10:10:55.447Z,56.24
2022-08-11T10:14:32.010Z,57.42
2022-08-11T10:16:15.675Z,59.28
2022-08-11T10:18:49.304Z,57.96
2022-08-11T10:21:36.692Z,58.10
2022-08-11T10:24:45.350Z,60.71
2022-08-11T10:27:13.594Z,62.55
2022-08-11T10:29:59.621Z,59.95
2022-08-11T10:32:58.307Z,56.88
2022-08-11T10:35:28.168Z,55.25
2022-08-11T10:38:08.719Z,58.33
2022-08-11T10:40:39.213Z,59.58
2022-08-11T10:44:01.291Z,61.36
2022-08-11T10:46:27.049Z,61.61
2022-08-11T10:48:57.875Z,61.09
2022-08-11T10:51:50.830Z,60.92
2022-08-11T10:54:39.364Z,61.32
2022-08-11T10:57:24.389Z,62.21
2022-08-11T10:59:51.099Z,62.11
2022-08-11T11:02:19.169Z,60.97
2022-08-11T11:05:12.218Z,59.60
2022-08-11T11:08:31.448Z,57.64
2022-08-11T11:10:58.594Z,59.76
2022-08-11T11:13:53.351Z,59.47
2022-08-11T11:16:43.252Z,58.37
2022-08-11T11:19:11.303Z,59.61
2022-08-11T11:21:38.925Z,57.36
2022-08-11T11:24:18.233Z,56.89
2022-08-11T11:26:57.388Z,51.67
2022-08-11T11:29:30.179Z,53.07
2022-08-11T11:32:11.704Z,52.93
2022-08-11T11:35:08.699Z,55.04
2022-08-11T11:37:36.841Z,57.88
2022-08-11T11:40:13.382Z,58.84
2022-08-11T11:42:41.451Z,58.30
2022-08-11T11:45:22.717Z,60.13
2022-08-11T11:47:53.773Z,59.35
2022-08-11T11:50:25.596Z,57.51
2022-08-11T11:52:59.388Z,55.20
2022-08-11T11:55:26.474Z,55.57
2022-08-11T11:58:15.986Z,54.19
2022-08-11T12:01:04.330Z,57.65
2022-08-11T12:03:31.211Z,59.61
2022-08-11T12:05:58.737Z,55.36
2022-08-11T12:08:27.821Z,55.04
2022-08-11T12:11:22.130Z,55.90
2022-08-11T12:13:50.417Z,58.45
2022-08-11T12:16:33.391Z,56.61
2022-08-11T12:19:05.654Z,53.58
2022-08-11T12:21:32.544Z,51.07
2022-08-11T12:24:20.280Z,46.86
2022-08-11T12:27:01.465Z,44.11
2022-08-11T12:29:41.480Z,40.79
2022-08-11T12:32:10.899Z,38.05
2022-08-11T12:34:37.548Z,36.90
2022-08-11T12:37:13.537Z,36.71
2022-08-11T12:40:16.600Z,36.32
2022-08-11T12:43:21.136Z,36.21
2022-08-11T12:45:52.288Z,35.92
2022-08-11T12:48:59.636Z,36.19
2022-08-11T12:52:06.744Z,35.76
2022-08-11T12:54:57.576Z,35.66
2022-08-11T12:57:55.789Z,34.48
2022-08-11T13:00:42.375Z,34.88
2022-08-11T13:03:29.088Z,34.80
2022-08-11T13:06:04.502Z,35.07
2022-08-11T13:08:35.441Z,35.35
2022-08-11T13:11:21.083Z,35.55
2022-08-11T13:13:54.418Z,35.42
2022-08-11T13:16:52.785Z,35.48
2022-08-11T13:19:21.211Z,34.72
2022-08-11T13:21:49.464Z,34.90
2022-08-11T13:24:19.031Z,34.36
2022-08-11T13:26:49.636Z,35.14
2022-08-11T13:29:36.038Z,35.20
2022-08-11T13:32:03.182Z,35.29
2022-08-11T13:34:34.254Z,35.15
2022-08-11T13:37:04.168Z,35.37
2022-08-11T13:39:32.464Z,35.04
2022-08-11T13:42:01.024Z,35.35
2022-08-11T13:44:30.010Z,35.47
2022-08-11T13:46:59.225Z,35.31
2022-08-11T13:49:26.182Z,35.80
2022-08-11T13:51:54.298Z,35.69
2022-08-11T13:54:23.573Z,35.61
2022-08-11T13:56:56.347Z,35.90
2022-08-11T13:59:24.040Z,35.76
2022-08-11T14:02:22.683Z,36.24
2022-08-11T14:04:57.993Z,36.58
2022-08-11T14:07:28.086Z,35.69
2022-08-11T14:09:59.184Z,36.12
2022-08-11T14:12:47.439Z,36.02
2022-08-11T14:15:20.253Z,35.77
2022-08-11T14:17:54.214Z,35.87
2022-08-11T14:20:38.411Z,35.37
2022-08-11T14:23:07.033Z,35.88
2022-08-11T14:26:00.136Z,36.30
2022-08-11T14:28:32.305Z,36.09
2022-08-11T14:31:05.219Z,35.61
2022-08-11T14:33:59.613Z,36.26
2022-08-11T14:36:21.067Z,35.67
2022-08-11T14:38:48.052Z,35.45
2022-08-11T14:41:33.718Z,35.99
2022-08-11T14:44:20.616Z,35.29
2022-08-11T14:47:23.385Z,35.13
2022-08-11T14:50:04.878Z,35.72
2022-08-11T14:52:49.876Z,35.83
2022-08-11T14:55:36.413Z,35.74
2022-08-11T14:58:03.355Z,35.36
2022-08-11T15:00:30.979Z,35.38
2022-08-11T15:03:10.966Z,34.92
2022-08-11T15:05:57.705Z,34.45
2022-08-11T15:08:54.753Z,35.02
2022-08-11T15:11:41.911Z,34.89
2022-08-11T15:14:10.575Z,35.12
2022-08-11T15:16:59.070Z,35.17
2022-08-11T15:19:26.467Z,35.23
2022-08-11T15:22:11.605Z,35.39
2022-08-11T15:24:38.459Z,34.96
2022-08-11T15:27:28.295Z,35.36
2022-08-11T15:30:20.216Z,34.72
2022-08-11T15:33:18.433Z,35.17
2022-08-11T15:36:03.707Z,34.79
2022-08-11T15:38:33.363Z,35.20
2022-08-11T15:41:19.513Z,35.07
2022-08-11T15:44:08.301Z,35.10
2022-08-11T15:46:45.187Z,34.62
2022-08-11T15:49:21.949Z,34.62
2022-08-11T15:52:02.195Z,33.99
2022-08-11T15:54:31.229Z,34.36
2022-08-11T15:57:01.689Z,33.97
2022-08-11T15:59:50.309Z,34.39
2022-08-11T16:02:27.875Z,34.60
2022-08-11T16:04:55.643Z,34.12
2022-08-11T16:07:27.189Z,34.24
2022-08-11T16:10:00.195Z,34.47
2022-08-11T16:12:30.983Z,34.41
2022-08-11T16:15:21.871Z,33.98
2022-08-11T16:17:51.825Z,33.99
2022-08-11T16:20:23.723Z,33.59
2022-08-11T16:22:57.164Z,33.78
2022-08-11T16:27:03.922Z,33.61
2022-08-11T16:28:16.965Z,33.60
2022-08-11T16:30:46.314Z,33.33
2022-08-11T16:33:48.186Z,33.03
2022-08-11T16:36:19.035Z,32.85
2022-08-11T16:38:45.896Z,33.19
2022-08-11T16:41:14.805Z,33.17
2022-08-11T16:44:03.719Z,33.34
2022-08-11T16:46:49.375Z,33.15
2022-08-11T16:49:19.956Z,33.01
2022-08-11T16:51:46.597Z,32.71
2022-08-11T16:54:13.730Z,32.88
2022-08-11T16:56:49.006Z,32.62
2022-08-11T16:59:22.854Z,32.93
2022-08-11T17:01:54.813Z,33.15
2022-08-11T17:04:43.364Z,33.21
2022-08-11T17:07:40.571Z,33.29
2022-08-11T17:10:51.924Z,33.39
2022-08-11T17:13:24.155Z,33.05
2022-08-11T17:16:06.785Z,32.57
2022-08-11T17:18:46.680Z,32.44
2022-08-11T17:21:23.017Z,32.72
2022-08-11T17:24:05.051Z,32.56
2022-08-11T17:26:57.674Z,32.90
2022-08-11T17:29:33.305Z,32.91
2022-08-11T17:32:26.891Z,32.81
2022-08-11T17:35:18.630Z,32.93
2022-08-11T17:37:47.959Z,32.88
2022-08-11T17:40:21.467Z,32.80
2022-08-11T17:43:07.162Z,32.84
2022-08-11T17:45:52.281Z,32.91
2022-08-11T17:48:25.556Z,32.90
2022-08-11T17:51:07.355Z,32.92
2022-08-11T17:54:17.091Z,33.01
2022-08-11T17:57:21.333Z,32.85
2022-08-11T17:59:53.190Z,33.29
2022-08-11T18:02:41.154Z,32.92
2022-08-11T18:05:12.731Z,33.02
2022-08-11T18:08:00.425Z,32.53
2022-08-11T18:10:48.715Z,32.81
2022-08-11T18:13:36.040Z,32.97
2022-08-11T18:16:21.164Z,33.01
2022-08-11T18:19:06.291Z,32.95
2022-08-11T18:22:08.332Z,32.70
2022-08-11T18:25:03.960Z,32.83
2022-08-11T18:27:50.540Z,32.69
2022-08-11T18:30:35.778Z,32.76
2022-08-11T18:33:50.631Z,32.57
2022-08-11T18:36:29.420Z,32.60
2022-08-11T18:39:15.485Z,32.42
2022-08-11T18:42:01.866Z,32.36
2022-08-11T18:44:48.992Z,32.20
2022-08-11T18:47:35.868Z,31.97
2022-08-11T18:50:38.502Z,31.85
2022-08-11T18:53:27.833Z,31.72
2022-08-11T18:56:12.926Z,31.53
2022-08-11T18:59:00.603Z,31.59
2022-08-11T19:01:46.395Z,31.31
2022-08-11T19:04:31.974Z,31.35
2022-08-11T19:07:23.630Z,31.09
2022-08-11T19:10:09.970Z,31.02
2022-08-11T19:12:58.145Z,30.68
2022-08-11T19:15:43.273Z,30.86
2022-08-11T19:18:37.074Z,30.83
2022-08-11T19:21:23.256Z,30.63
2022-08-11T19:24:11.921Z,30.70
2022-08-11T19:26:56.969Z,29.63
2022-08-11T19:30:07.245Z,30.35
2022-08-11T19:32:48.784Z,30.23
2022-08-11T19:35:34.588Z,30.13
2022-08-11T19:38:20.151Z,29.76
2022-08-11T19:41:05.255Z,29.84
2022-08-11T19:43:51.824Z,29.75
2022-08-11T19:46:39.015Z,29.25
2022-08-11T19:49:24.875Z,29.43
2022-08-11T19:52:10.424Z,29.51
2022-08-11T19:54:56.755Z,29.48
2022-08-11T19:57:43.073Z,29.09
2022-08-11T20:00:32.712Z,29.09
2022-08-11T20:03:22.167Z,29.04
2022-08-11T20:06:08.080Z,28.96
2022-08-11T20:08:58.299Z,28.86
2022-08-11T20:11:45.573Z,28.76
2022-08-11T20:14:31.226Z,28.82
2022-08-11T20:17:17.654Z,28.88
2022-08-11T20:20:02.795Z,28.86
2022-08-11T20:22:49.509Z,28.85
2022-08-11T20:25:36.079Z,28.86
2022-08-11T20:28:22.702Z,28.80
2022-08-11T20:31:08.953Z,28.65
2022-08-11T20:33:54.659Z,28.80
2022-08-11T20:36:40.266Z,28.79
2022-08-11T20:39:25.457Z,28.49
2022-08-11T20:42:11.780Z,28.45
2022-08-11T20:44:57.949Z,28.65
2022-08-11T20:47:59.882Z,28.24
2022-08-11T20:50:46.571Z,28.30
2022-08-11T20:53:35.804Z,28.41
2022-08-11T20:56:28.801Z,28.18
2022-08-11T20:59:18.289Z,28.15
2022-08-11T21:02:09.631Z,28.09
2022-08-11T21:04:56.960Z,28.27
2022-08-11T21:07:50.240Z,28.23
2022-08-11T21:10:42.569Z,28.02
2022-08-11T21:13:29.340Z,27.79
2022-08-11T21:16:26.533Z,28.00
2022-08-11T21:19:17.543Z,27.85
2022-08-11T21:22:03.822Z,27.64
2022-08-11T21:24:50.412Z,27.63
2022-08-11T21:27:37.294Z,27.48
2022-08-11T21:30:22.905Z,27.54
2022-08-11T21:33:08.635Z,27.40
2022-08-11T21:35:54.434Z,27.32
2022-08-11T21:41:33.024Z,27.30
2022-08-11T21:44:19.246Z,27.27
2022-08-11T21:47:05.509Z,27.21
2022-08-11T21:49:51.108Z,27.08
2022-08-11T21:52:36.256Z,27.13
2022-08-11T21:55:21.848Z,27.00
2022-08-11T21:58:07.605Z,27.17
2022-08-11T22:00:53.268Z,26.97
2022-08-11T22:03:49.405Z,26.99
2022-08-11T22:06:35.969Z,27.10
2022-08-11T22:09:21.495Z,26.91
2022-08-11T22:12:34.082Z,26.84
2022-08-11T22:15:12.429Z,26.16
2022-08-11T22:17:58.289Z,26.50
2022-08-11T22:20:44.976Z,26.39
2022-08-11T22:23:35.265Z,26.52
2022-08-11T22:26:22.367Z,26.50
2022-08-11T22:29:07.809Z,26.24
2022-08-11T22:31:54.667Z,26.31
2022-08-11T22:34:53.112Z,26.19
2022-08-11T22:37:40.537Z,26.04
2022-08-11T22:40:27.787Z,25.84
2022-08-11T22:43:12.790Z,25.92
2022-08-11T22:45:58.205Z,26.01
2022-08-11T22:48:44.750Z,26.04
2022-08-11T22:51:31.416Z,26.06
2022-08-11T22:54:17.037Z,26.11
2022-08-11T22:57:02.079Z,26.07
2022-08-11T22:59:47.428Z,25.95
2022-08-11T23:02:33.185Z,26.00
2022-08-11T23:05:18.592Z,25.88
2022-08-11T23:08:03.846Z,25.81
2022-08-11T23:10:49.436Z,25.88
2022-08-11T23:13:35.077Z,25.73
2022-08-11T23:16:20.790Z,25.75
2022-08-11T23:19:07.329Z,25.29
2022-08-11T23:21:56.016Z,25.40
2022-08-11T23:24:43.738Z,25.43
2022-08-11T23:27:31.721Z,25.57
2022-08-11T23:30:19.346Z,25.51
2022-08-11T23:33:06.610Z,25.53
2022-08-11T23:35:56.546Z,25.47
2022-08-11T23:38:43.249Z,25.33
2022-08-11T23:41:29.109Z,25.36
2022-08-11T23:44:14.183Z,25.46
2022-08-11T23:47:00.171Z,25.20
2022-08-11T23:49:45.989Z,25.50
2022-08-11T23:52:31.458Z,25.60
2022-08-11T23:55:16.633Z,25.82
2022-08-11T23:58:01.689Z,25.83
